Time;durP1;ratioP1;P1;durP2;ratioP2;P2;SDS_P1;SDS_P2;PMS_P1;PMS_P2;Temp;Humidity;BMP_temperature;BMP_pressure;BME280_temperature;BME280_humidity;BME280_pressure;Samples;Min_cycle;Max_cycle;Signal;HPM_P1;HPM_P2
2023/05/23 00:01:37;;;;;;;7.87;7.10;;;;;;;;;;5039299;28;20225;-64
2023/05/23 00:04:03;;;;;;;7.67;6.73;;;;;;;;;;5020907;28;20187;-64
2023/05/23 00:06:30;;;;;;;7.53;6.20;;;;;;;;;;5038363;28;20179;-64
2023/05/23 00:08:56;;;;;;;6.90;6.20;;;;;;;;;;5022743;28;20198;-64
2023/05/23 00:11:25;;;;;;;6.73;6.03;;;;;;;;;;5043662;28;20211;-64
2023/05/23 00:13:52;;;;;;;6.70;6.00;;;;;;;;;;5042695;28;20179;-64
2023/05/23 00:16:18;;;;;;;6.30;5.60;;;;;;;;;;5039024;28;20179;-65
2023/05/23 00:18:44;;;;;;;8.07;5.53;;;;;;;;;;5039496;28;20225;-65
2023/05/23 00:21:10;;;;;;;6.33;5.43;;;;;;;;;;5039459;28;20253;-66
2023/05/23 00:23:37;;;;;;;7.73;5.73;;;;;;;;;;5019915;28;20335;-65
2023/05/23 00:26:03;;;;;;;5.97;5.30;;;;;;;;;;5039053;28;20176;-65
2023/05/23 00:28:29;;;;;;;8.97;5.40;;;;;;;;;;5038525;28;20183;-63
2023/05/23 00:30:55;;;;;;;7.37;5.83;;;;;;;;;;5040203;28;20582;-65
2023/05/23 00:33:22;;;;;;;6.87;6.17;;;;;;;;;;5021178;28;20175;-65
2023/05/23 00:35:48;;;;;;;7.13;6.03;;;;;;;;;;5038313;28;20210;-65
2023/05/23 00:38:14;;;;;;;6.80;5.70;;;;;;;;;;5038368;28;20176;-65
2023/05/23 00:40:40;;;;;;;6.73;5.70;;;;;;;;;;5039139;28;20661;-65
2023/05/23 00:43:09;;;;;;;5.83;5.27;;;;;;;;;;5041633;28;20179;-65
2023/05/23 00:45:35;;;;;;;6.23;5.73;;;;;;;;;;5038552;28;20209;-64
2023/05/23 00:48:02;;;;;;;6.77;6.07;;;;;;;;;;5038505;28;20329;-65
2023/05/23 00:50:28;;;;;;;6.10;5.60;;;;;;;;;;5037963;28;20294;-65
2023/05/23 00:52:55;;;;;;;5.80;5.23;;;;;;;;;;5037867;28;20171;-65
2023/05/23 00:55:22;;;;;;;8.50;6.10;;;;;;;;;;5020250;28;20185;-65
2023/05/23 00:57:48;;;;;;;5.83;5.27;;;;;;;;;;5039167;28;20175;-65
2023/05/23 01:00:15;;;;;;;8.70;5.50;;;;;;;;;;5037024;28;20281;-65
2023/05/23 01:02:45;;;;;;;6.70;5.10;;;;;;;;;;5035246;28;20541;-65
2023/05/23 01:05:16;;;;;;;6.07;5.47;;;;;;;;;;5017803;28;20180;-64
2023/05/23 01:07:42;;;;;;;7.83;5.57;;;;;;;;;;5035979;28;20187;-65
2023/05/23 01:10:08;;;;;;;6.13;5.30;;;;;;;;;;5035429;28;20207;-65
2023/05/23 01:12:49;;;;;;;8.37;5.87;;;;;;;;;;5035614;28;20261;-65
2023/05/23 01:15:16;;;;;;;5.97;5.20;;;;;;;;;;5035302;28;20578;-65
2023/05/23 01:17:46;;;;;;;8.87;5.57;;;;;;;;;;5035610;28;20176;-65
2023/05/23 01:20:15;;;;;;;6.83;6.10;;;;;;;;;;5035533;28;20199;-67
2023/05/23 01:22:59;;;;;;;7.67;5.53;;;;;;;;;;5017292;28;20202;-65
2023/05/23 01:25:39;;;;;;;6.43;5.23;;;;;;;;;;5035374;28;20179;-64
2023/05/23 01:28:06;;;;;;;6.70;5.33;;;;;;;;;;5017278;28;20226;-65
2023/05/23 01:30:34;;;;;;;7.80;6.57;;;;;;;;;;5035415;28;20622;-65
2023/05/23 01:33:01;;;;;;;9.00;6.20;;;;;;;;;;5035036;28;20183;-65
2023/05/23 01:35:27;;;;;;;7.43;6.27;;;;;;;;;;5034944;28;20228;-65
2023/05/23 01:37:54;;;;;;;7.40;6.03;;;;;;;;;;5034908;28;20637;-65
2023/05/23 01:40:20;;;;;;;8.60;5.93;;;;;;;;;;5034706;28;20579;-64
2023/05/23 01:42:46;;;;;;;8.80;6.57;;;;;;;;;;5017235;28;20179;-65
2023/05/23 01:45:13;;;;;;;7.77;6.30;;;;;;;;;;5034928;28;20206;-65
2023/05/23 01:47:40;;;;;;;7.13;6.47;;;;;;;;;;5035112;28;20179;-64
2023/05/23 01:50:06;;;;;;;7.30;5.73;;;;;;;;;;5034740;28;20245;-64
2023/05/23 01:52:33;;;;;;;8.80;6.10;;;;;;;;;;5016732;28;20234;-65
2023/05/23 01:54:59;;;;;;;7.33;6.50;;;;;;;;;;5034686;28;20175;-64
2023/05/23 01:57:26;;;;;;;7.93;5.83;;;;;;;;;;5016567;28;20270;-65
2023/05/23 01:59:52;;;;;;;11.80;7.30;;;;;;;;;;5016282;28;20230;-65
2023/05/23 02:02:18;;;;;;;7.47;6.37;;;;;;;;;;5034474;28;20608;-65
2023/05/23 02:04:43;;;;;;;9.33;6.87;;;;;;;;;;5016482;28;20179;-65
2023/05/23 02:07:09;;;;;;;6.83;6.10;;;;;;;;;;5034217;28;20183;-63
2023/05/23 02:09:35;;;;;;;8.07;6.60;;;;;;;;;;5033777;28;20601;-64
2023/05/23 02:12:01;;;;;;;6.73;6.03;;;;;;;;;;5034106;28;20261;-64
2023/05/23 02:14:28;;;;;;;9.63;6.27;;;;;;;;;;5033680;28;20171;-66
2023/05/23 02:16:54;;;;;;;9.40;6.60;;;;;;;;;;5015151;28;20815;-64
2023/05/23 02:19:20;;;;;;;6.27;5.67;;;;;;;;;;5034350;28;20306;-64
2023/05/23 02:21:46;;;;;;;6.07;5.47;;;;;;;;;;5035530;28;20568;-65
2023/05/23 02:24:12;;;;;;;6.50;5.63;;;;;;;;;;5034695;28;20187;-65
2023/05/23 02:26:38;;;;;;;8.93;6.33;;;;;;;;;;5034165;28;20207;-62
2023/05/23 02:29:04;;;;;;;9.03;6.30;;;;;;;;;;5034013;28;20600;-65
2023/05/23 02:31:30;;;;;;;9.63;6.10;;;;;;;;;;5033748;28;20613;-65
2023/05/23 02:33:56;;;;;;;10.53;6.37;;;;;;;;;;5016243;28;20203;-64
2023/05/23 02:36:22;;;;;;;12.37;6.13;;;;;;;;;;5034257;28;20203;-65
2023/05/23 02:38:48;;;;;;;9.40;6.53;;;;;;;;;;5016027;28;20186;-62
2023/05/23 02:41:14;;;;;;;7.80;7.00;;;;;;;;;;5033862;28;20195;-65
2023/05/23 02:43:40;;;;;;;9.00;6.73;;;;;;;;;;5033698;28;20235;-62
2023/05/23 02:46:06;;;;;;;9.60;7.43;;;;;;;;;;5032731;28;20394;-64
2023/05/23 02:48:32;;;;;;;9.17;7.83;;;;;;;;;;5033544;28;20175;-65
2023/05/23 02:50:58;;;;;;;10.70;7.70;;;;;;;;;;5015537;28;20306;-65
2023/05/23 02:53:24;;;;;;;14.27;8.17;;;;;;;;;;5015854;28;20686;-65
2023/05/23 02:55:50;;;;;;;13.57;8.33;;;;;;;;;;5015622;28;20179;-63
2023/05/23 02:58:16;;;;;;;11.40;7.33;;;;;;;;;;5033643;28;20255;-66
2023/05/23 03:00:42;;;;;;;9.65;7.95;;;;;;;;;;5032059;28;20440;-63
2023/05/23 03:03:08;;;;;;;8.27;6.47;;;;;;;;;;5033505;28;20179;-65
2023/05/23 03:05:35;;;;;;;10.10;6.70;;;;;;;;;;5033919;28;20538;-69
2023/05/23 03:08:01;;;;;;;9.37;6.53;;;;;;;;;;5033619;28;20166;-65
2023/05/23 03:10:27;;;;;;;11.03;7.10;;;;;;;;;;5033401;28;20272;-64
2023/05/23 03:12:53;;;;;;;8.77;6.00;;;;;;;;;;5057535;23;20177;-70
2023/05/23 03:15:19;;;;;;;8.57;6.13;;;;;;;;;;5054525;28;20242;-70
2023/05/23 03:17:45;;;;;;;8.53;5.93;;;;;;;;;;5054270;28;20171;-70
2023/05/23 03:20:11;;;;;;;7.90;6.00;;;;;;;;;;5036277;28;20177;-69
2023/05/23 03:22:37;;;;;;;10.00;5.95;;;;;;;;;;5053240;28;20796;-70
2023/05/23 03:25:03;;;;;;;9.77;6.37;;;;;;;;;;5054422;28;20170;-70
2023/05/23 03:27:29;;;;;;;7.53;5.83;;;;;;;;;;5058134;28;20175;-70
2023/05/23 03:29:55;;;;;;;7.70;5.80;;;;;;;;;;5039887;28;20182;-70
2023/05/23 03:32:21;;;;;;;10.02;7.05;;;;;;;;;;5056263;28;20492;-70
2023/05/23 03:34:47;;;;;;;6.90;5.77;;;;;;;;;;5057670;28;20193;-70
2023/05/23 03:37:13;;;;;;;9.27;5.80;;;;;;;;;;5057034;28;20170;-70
2023/05/23 03:39:39;;;;;;;7.20;6.07;;;;;;;;;;5039443;28;20170;-70
2023/05/23 03:42:05;;;;;;;6.97;6.20;;;;;;;;;;5057424;28;20304;-70
2023/05/23 03:44:31;;;;;;;9.47;5.57;;;;;;;;;;5039063;28;20195;-70
2023/05/23 03:46:57;;;;;;;8.63;5.90;;;;;;;;;;5057243;28;20206;-70
2023/05/23 03:49:23;;;;;;;8.87;6.50;;;;;;;;;;5057098;28;20183;-70
2023/05/23 03:51:49;;;;;;;8.63;6.30;;;;;;;;;;5057037;28;20198;-69
2023/05/23 03:54:16;;;;;;;7.10;6.00;;;;;;;;;;5056877;28;20579;-70
2023/05/23 03:56:42;;;;;;;11.97;6.77;;;;;;;;;;5039103;28;20221;-69
2023/05/23 03:59:08;;;;;;;9.60;7.33;;;;;;;;;;5038984;28;20174;-70
2023/05/23 04:01:34;;;;;;;9.23;7.10;;;;;;;;;;5056998;28;20174;-70
2023/05/23 04:04:00;;;;;;;10.07;6.30;;;;;;;;;;5057240;28;20267;-70
2023/05/23 04:06:30;;;;;;;8.83;7.07;;;;;;;;;;5057525;28;20592;-70
2023/05/23 04:08:55;;;;;;;11.77;8.03;;;;;;;;;;5056790;28;20178;-70
2023/05/23 04:11:22;;;;;;;9.13;7.43;;;;;;;;;;5057160;28;20209;-70
2023/05/23 04:13:48;;;;;;;13.07;8.80;;;;;;;;;;5056419;28;20214;-70
2023/05/23 04:16:15;;;;;;;9.83;6.33;;;;;;;;;;5056671;28;20220;-70
2023/05/23 04:18:42;;;;;;;13.43;7.93;;;;;;;;;;5056595;28;20224;-70
2023/05/23 04:21:08;;;;;;;12.03;8.43;;;;;;;;;;5056672;28;20171;-70
2023/05/23 04:23:34;;;;;;;10.77;8.70;;;;;;;;;;5038645;28;20208;-70
2023/05/23 04:26:00;;;;;;;14.45;9.38;;;;;;;;;;5055385;28;20421;-69
2023/05/23 04:28:26;;;;;;;10.97;8.40;;;;;;;;;;5038563;28;20190;-70
2023/05/23 04:30:52;;;;;;;11.53;7.70;;;;;;;;;;5056466;28;20198;-70
2023/05/23 04:33:18;;;;;;;12.07;8.17;;;;;;;;;;5056020;28;20229;-70
2023/05/23 04:35:44;;;;;;;11.97;8.47;;;;;;;;;;5056888;28;20186;-70
2023/05/23 04:38:12;;;;;;;13.27;8.50;;;;;;;;;;5038269;28;20633;-70
2023/05/23 04:40:38;;;;;;;13.00;8.60;;;;;;;;;;5056699;28;20168;-70
2023/05/23 04:43:04;;;;;;;13.33;8.03;;;;;;;;;;5056225;28;20198;-70
2023/05/23 04:45:30;;;;;;;15.20;9.17;;;;;;;;;;5056554;28;20174;-70
2023/05/23 04:47:56;;;;;;;10.80;9.37;;;;;;;;;;5038285;28;20257;-70
2023/05/23 04:50:22;;;;;;;14.20;9.20;;;;;;;;;;5063568;28;20182;-72
2023/05/23 04:52:48;;;;;;;14.37;9.57;;;;;;;;;;5075119;28;20178;-70
2023/05/23 04:55:14;;;;;;;15.37;10.17;;;;;;;;;;5075252;28;20241;-70
2023/05/23 04:57:40;;;;;;;13.30;9.40;;;;;;;;;;5074720;28;20230;-70
2023/05/23 05:00:09;;;;;;;13.13;9.67;;;;;;;;;;5073810;28;20232;-70
2023/05/23 05:02:35;;;;;;;11.80;9.60;;;;;;;;;;5075065;28;20182;-70
2023/05/23 05:05:01;;;;;;;11.17;9.87;;;;;;;;;;5072904;28;20244;-70
2023/05/23 05:07:28;;;;;;;13.93;9.50;;;;;;;;;;5046364;28;20240;-69
2023/05/23 05:09:54;;;;;;;14.67;9.77;;;;;;;;;;5055958;28;20174;-69
2023/05/23 05:12:20;;;;;;;12.47;9.13;;;;;;;;;;5037506;28;20672;-69
2023/05/23 05:14:46;;;;;;;14.70;9.73;;;;;;;;;;5055276;28;20225;-69
2023/05/23 05:17:12;;;;;;;14.27;9.70;;;;;;;;;;5055311;28;20185;-69
2023/05/23 05:19:38;;;;;;;11.17;9.43;;;;;;;;;;5055630;28;20175;-69
2023/05/23 05:22:04;;;;;;;16.97;10.93;;;;;;;;;;5055219;28;20257;-68
2023/05/23 05:24:31;;;;;;;14.77;10.10;;;;;;;;;;5055050;28;20628;-69
2023/05/23 05:26:57;;;;;;;15.33;9.30;;;;;;;;;;5055364;28;20250;-70
2023/05/23 05:29:24;;;;;;;13.70;9.70;;;;;;;;;;5055015;28;20178;-69
2023/05/23 05:31:50;;;;;;;12.00;9.20;;;;;;;;;;5054984;28;20252;-70
2023/05/23 05:34:17;;;;;;;12.47;9.27;;;;;;;;;;5054795;28;20193;-69
2023/05/23 05:36:46;;;;;;;15.90;9.90;;;;;;;;;;5054956;28;20691;-69
2023/05/23 05:39:13;;;;;;;15.93;9.87;;;;;;;;;;5037025;28;20687;-69
2023/05/23 05:41:39;;;;;;;13.57;9.27;;;;;;;;;;5038701;28;20178;-69
2023/05/23 05:44:05;;;;;;;14.57;9.87;;;;;;;;;;5072514;28;20191;-70
2023/05/23 05:46:31;;;;;;;13.10;8.87;;;;;;;;;;5072733;28;20253;-69
2023/05/23 05:48:57;;;;;;;9.77;8.20;;;;;;;;;;5059846;28;20213;-70
2023/05/23 05:51:23;;;;;;;12.17;8.20;;;;;;;;;;5039140;28;20206;-70
2023/05/23 05:53:49;;;;;;;13.00;9.17;;;;;;;;;;5056540;28;20198;-70
2023/05/23 05:56:15;;;;;;;10.70;8.23;;;;;;;;;;5055593;28;20175;-69
2023/05/23 05:58:41;;;;;;;10.07;8.37;;;;;;;;;;5054774;28;20644;-69
2023/05/23 06:01:07;;;;;;;12.03;9.07;;;;;;;;;;5054935;28;20261;-69
2023/05/23 06:03:33;;;;;;;13.23;9.60;;;;;;;;;;5054864;28;20285;-69
2023/05/23 06:05:59;;;;;;;14.73;8.47;;;;;;;;;;5054845;28;20553;-69
2023/05/23 06:08:25;;;;;;;12.80;9.47;;;;;;;;;;5036687;28;20182;-69
2023/05/23 06:10:51;;;;;;;12.30;8.60;;;;;;;;;;5054279;28;20201;-69
2023/05/23 06:13:17;;;;;;;15.20;8.80;;;;;;;;;;5054225;28;20212;-69
2023/05/23 06:15:43;;;;;;;11.33;8.90;;;;;;;;;;5055127;28;20177;-69
2023/05/23 06:18:10;;;;;;;14.37;9.43;;;;;;;;;;5036450;28;20632;-68
2023/05/23 06:20:36;;;;;;;14.97;8.67;;;;;;;;;;5054396;28;20174;-69
2023/05/23 06:23:04;;;;;;;14.70;9.77;;;;;;;;;;5054602;28;20206;-69
2023/05/23 06:25:30;;;;;;;15.27;9.20;;;;;;;;;;5054420;28;20629;-69
2023/05/23 06:27:56;;;;;;;11.27;8.53;;;;;;;;;;5036605;28;20189;-69
2023/05/23 06:30:23;;;;;;;14.07;9.10;;;;;;;;;;5054494;28;20174;-70
2023/05/23 06:32:49;;;;;;;13.40;9.13;;;;;;;;;;5054323;28;20182;-69
2023/05/23 06:35:16;;;;;;;13.57;8.97;;;;;;;;;;5054221;28;20243;-69
2023/05/23 06:37:44;;;;;;;14.03;10.00;;;;;;;;;;5036550;28;20190;-69
2023/05/23 06:40:11;;;;;;;13.10;9.63;;;;;;;;;;5054163;28;20222;-69
2023/05/23 06:42:36;;;;;;;14.40;10.47;;;;;;;;;;5053675;28;20711;-70
2023/05/23 06:45:02;;;;;;;13.70;9.10;;;;;;;;;;5035987;28;20245;-70
2023/05/23 06:47:28;;;;;;;13.93;9.30;;;;;;;;;;5036018;28;20559;-69
2023/05/23 06:49:54;;;;;;;17.10;9.23;;;;;;;;;;5054056;28;20194;-69
2023/05/23 06:52:20;;;;;;;14.13;9.20;;;;;;;;;;5053738;28;20202;-69
2023/05/23 06:54:46;;;;;;;12.13;8.80;;;;;;;;;;5053465;28;20205;-69
2023/05/23 06:57:12;;;;;;;12.93;8.90;;;;;;;;;;5053523;28;20175;-69
2023/05/23 06:59:38;;;;;;;15.43;8.80;;;;;;;;;;5035694;28;20174;-69
2023/05/23 07:02:04;;;;;;;16.37;8.57;;;;;;;;;;5053563;28;20187;-70
2023/05/23 07:04:30;;;;;;;12.70;8.47;;;;;;;;;;5064237;28;20240;-70
2023/05/23 07:06:56;;;;;;;9.97;7.83;;;;;;;;;;5063574;28;20187;-70
2023/05/23 07:09:22;;;;;;;13.97;8.60;;;;;;;;;;5063172;28;20189;-70
2023/05/23 07:11:48;;;;;;;13.27;8.47;;;;;;;;;;5038625;28;20202;-69
2023/05/23 07:14:15;;;;;;;15.50;8.53;;;;;;;;;;5054134;28;20263;-70
2023/05/23 07:16:41;;;;;;;15.10;8.53;;;;;;;;;;5035994;28;20228;-69
2023/05/23 07:19:07;;;;;;;15.53;8.13;;;;;;;;;;5035751;28;20590;-70
2023/05/23 07:21:32;;;;;;;14.37;8.77;;;;;;;;;;5054223;28;20178;-71
2023/05/23 07:23:58;;;;;;;13.90;9.40;;;;;;;;;;5053417;28;20559;-70
2023/05/23 07:26:26;;;;;;;16.00;9.00;;;;;;;;;;5053380;28;20231;-70
2023/05/23 07:28:52;;;;;;;17.97;9.63;;;;;;;;;;5035404;28;20316;-70
2023/05/23 07:31:18;;;;;;;17.40;9.40;;;;;;;;;;5053574;28;20285;-70
2023/05/23 07:33:44;;;;;;;17.10;8.80;;;;;;;;;;5053409;28;20198;-70
2023/05/23 07:36:10;;;;;;;12.27;7.70;;;;;;;;;;5053362;28;20182;-69
2023/05/23 07:38:36;;;;;;;18.90;9.23;;;;;;;;;;5035207;28;20644;-70
2023/05/23 07:41:02;;;;;;;17.03;8.73;;;;;;;;;;5053196;28;20178;-70
2023/05/23 07:43:28;;;;;;;14.97;8.10;;;;;;;;;;5035208;28;20203;-71
2023/05/23 07:45:54;;;;;;;15.60;8.07;;;;;;;;;;5053486;28;20179;-70
2023/05/23 07:48:20;;;;;;;16.83;9.07;;;;;;;;;;5035544;28;20225;-69
2023/05/23 07:50:46;;;;;;;16.37;8.50;;;;;;;;;;5053360;28;20205;-70
2023/05/23 07:53:12;;;;;;;19.03;7.90;;;;;;;;;;5053117;28;20195;-70
2023/05/23 07:55:38;;;;;;;16.23;8.10;;;;;;;;;;5053067;28;20179;-70
2023/05/23 07:58:04;;;;;;;18.60;8.93;;;;;;;;;;5052906;28;20177;-70
2023/05/23 08:00:30;;;;;;;16.63;7.93;;;;;;;;;;5053255;28;20170;-69
2023/05/23 08:02:56;;;;;;;15.40;8.70;;;;;;;;;;5053691;28;20195;-70
2023/05/23 08:05:22;;;;;;;16.07;8.50;;;;;;;;;;5035190;28;20202;-70
2023/05/23 08:07:48;;;;;;;19.07;7.97;;;;;;;;;;5035210;28;20243;-70
2023/05/23 08:10:14;;;;;;;19.92;9.75;;;;;;;;;;5052223;28;20950;-70
2023/05/23 08:12:40;;;;;;;14.83;8.77;;;;;;;;;;5037756;28;20199;-70
2023/05/23 08:15:07;;;;;;;14.17;8.27;;;;;;;;;;5039030;28;20179;-70
2023/05/23 08:17:33;;;;;;;16.10;8.10;;;;;;;;;;5057327;28;20178;-70
2023/05/23 08:20:00;;;;;;;16.33;8.70;;;;;;;;;;5039055;28;20171;-70
2023/05/23 08:22:26;;;;;;;17.20;8.83;;;;;;;;;;5061771;28;20178;-71
2023/05/23 08:24:51;;;;;;;17.00;9.10;;;;;;;;;;5071005;28;20205;-71
2023/05/23 08:27:17;;;;;;;14.17;8.00;;;;;;;;;;5051543;28;20186;-70
2023/05/23 08:29:43;;;;;;;19.83;8.90;;;;;;;;;;5039115;28;20647;-70
2023/05/23 08:32:09;;;;;;;13.17;9.07;;;;;;;;;;5038618;28;20289;-69
2023/05/23 08:34:35;;;;;;;18.77;8.97;;;;;;;;;;5056598;28;20209;-70
2023/05/23 08:37:01;;;;;;;17.10;8.83;;;;;;;;;;5057277;28;20178;-70
2023/05/23 08:39:27;;;;;;;16.67;9.20;;;;;;;;;;5056543;28;20175;-70
2023/05/23 08:41:53;;;;;;;15.10;8.40;;;;;;;;;;5056619;28;20178;-70
2023/05/23 08:44:19;;;;;;;13.37;7.63;;;;;;;;;;5056065;28;20656;-70
2023/05/23 08:46:48;;;;;;;12.93;7.90;;;;;;;;;;5056250;28;20185;-69
2023/05/23 08:49:17;;;;;;;13.93;7.50;;;;;;;;;;5038127;28;20214;-69
2023/05/23 08:51:43;;;;;;;13.67;7.40;;;;;;;;;;5056453;28;20226;-70
2023/05/23 08:54:11;;;;;;;16.23;7.27;;;;;;;;;;5037963;28;20206;-70
2023/05/23 08:56:38;;;;;;;14.33;7.03;;;;;;;;;;5038035;28;20182;-69
2023/05/23 08:59:04;;;;;;;13.60;7.00;;;;;;;;;;5055780;28;20181;-70
2023/05/23 09:01:32;;;;;;;13.30;6.93;;;;;;;;;;5055910;28;20178;-70
2023/05/23 09:04:03;;;;;;;12.17;7.47;;;;;;;;;;5056007;28;20257;-70
2023/05/23 09:06:31;;;;;;;13.10;7.00;;;;;;;;;;5056601;28;20169;-70
2023/05/23 09:08:57;;;;;;;15.07;6.90;;;;;;;;;;5055657;28;20171;-69
2023/05/23 09:11:23;;;;;;;11.10;7.40;;;;;;;;;;5037682;28;20255;-70
2023/05/23 09:13:50;;;;;;;17.20;7.53;;;;;;;;;;5055431;28;20214;-71
2023/05/23 09:16:19;;;;;;;15.20;8.30;;;;;;;;;;5055885;28;20179;-70
2023/05/23 09:18:46;;;;;;;15.20;8.90;;;;;;;;;;5070556;22;20223;-64
2023/05/23 09:21:12;;;;;;;17.70;9.80;;;;;;;;;;5035867;28;20225;-64
2023/05/23 09:23:39;;;;;;;17.73;9.97;;;;;;;;;;5034116;28;20186;-65
2023/05/23 09:26:06;;;;;;;16.90;10.17;;;;;;;;;;5035065;28;20739;-64
2023/05/23 09:28:33;;;;;;;21.07;9.77;;;;;;;;;;5017493;28;20227;-64
2023/05/23 09:30:59;;;;;;;21.57;9.00;;;;;;;;;;5017303;28;20210;-64
2023/05/23 09:33:29;;;;;;;13.90;7.80;;;;;;;;;;5035248;28;20556;-64
2023/05/23 09:35:55;;;;;;;14.27;8.20;;;;;;;;;;5017258;28;20217;-64
2023/05/23 09:38:21;;;;;;;16.80;8.57;;;;;;;;;;5017473;28;20230;-64
2023/05/23 09:40:47;;;;;;;16.17;9.10;;;;;;;;;;5017268;28;20175;-65
2023/05/23 09:43:17;;;;;;;16.90;8.53;;;;;;;;;;5017406;28;20187;-66
2023/05/23 09:45:43;;;;;;;13.33;7.90;;;;;;;;;;5035455;28;20542;-64
2023/05/23 09:48:12;;;;;;;11.67;7.33;;;;;;;;;;5017018;28;20195;-64
2023/05/23 09:50:39;;;;;;;16.27;7.50;;;;;;;;;;5035208;28;20270;-64
2023/05/23 09:53:05;;;;;;;17.63;7.87;;;;;;;;;;5034793;28;20182;-64
2023/05/23 09:55:31;;;;;;;13.10;6.53;;;;;;;;;;5035103;28;20175;-64
2023/05/23 09:57:58;;;;;;;15.47;7.27;;;;;;;;;;5034458;28;20176;-64
2023/05/23 10:00:24;;;;;;;12.50;6.77;;;;;;;;;;5034822;28;20636;-64
2023/05/23 10:02:54;;;;;;;14.80;6.77;;;;;;;;;;5034640;28;20263;-63
2023/05/23 10:05:30;;;;;;;12.43;6.57;;;;;;;;;;5015627;28;20387;-64
2023/05/23 10:07:59;;;;;;;12.23;6.07;;;;;;;;;;5034501;28;20186;-64
2023/05/23 10:10:27;;;;;;;9.10;5.67;;;;;;;;;;5034648;28;20181;-64
2023/05/23 10:12:55;;;;;;;11.00;6.53;;;;;;;;;;5016498;28;20253;-64
2023/05/23 10:15:22;;;;;;;9.60;5.87;;;;;;;;;;5034485;28;20179;-64
2023/05/23 10:18:00;;;;;;;13.57;6.03;;;;;;;;;;5034192;28;20175;-64
2023/05/23 10:20:30;;;;;;;11.00;5.67;;;;;;;;;;5016607;28;20255;-64
2023/05/23 10:22:57;;;;;;;14.23;6.17;;;;;;;;;;5034337;28;20171;-65
2023/05/23 10:25:24;;;;;;;8.50;6.43;;;;;;;;;;5034424;28;20175;-65
2023/05/23 10:27:50;;;;;;;10.40;5.87;;;;;;;;;;5033871;28;20187;-64
2023/05/23 10:30:16;;;;;;;11.57;6.50;;;;;;;;;;5016566;28;20602;-65
2023/05/23 10:32:42;;;;;;;10.03;6.30;;;;;;;;;;5034106;28;20241;-65
2023/05/23 10:35:23;;;;;;;13.27;6.93;;;;;;;;;;5034251;28;20685;-65
2023/05/23 10:37:56;;;;;;;18.07;7.40;;;;;;;;;;5016454;28;20175;-63
2023/05/23 10:40:26;;;;;;;13.60;7.33;;;;;;;;;;5034430;28;20296;-66
2023/05/23 10:42:55;;;;;;;11.50;6.83;;;;;;;;;;5034266;28;20179;-66
2023/05/23 10:45:22;;;;;;;14.95;8.43;;;;;;;;;;5032733;28;20441;-65
2023/05/23 10:47:48;;;;;;;12.30;6.97;;;;;;;;;;5015914;28;20282;-66
2023/05/23 10:50:16;;;;;;;12.27;6.90;;;;;;;;;;5033815;28;20277;-65
2023/05/23 10:52:42;;;;;;;10.50;6.83;;;;;;;;;;5033578;28;20214;-64
2023/05/23 10:55:18;;;;;;;11.23;5.63;;;;;;;;;;5015949;28;20171;-65
2023/05/23 10:57:44;;;;;;;14.03;5.90;;;;;;;;;;5015863;28;20220;-65
2023/05/23 11:00:17;;;;;;;11.10;4.60;;;;;;;;;;5015920;28;20234;-67
2023/05/23 11:02:49;;;;;;;9.23;4.63;;;;;;;;;;5033402;28;20198;-66
2023/05/23 11:05:23;;;;;;;8.50;4.30;;;;;;;;;;5016358;28;20211;-66
2023/05/23 11:08:06;;;;;;;9.87;3.83;;;;;;;;;;5015161;28;20242;-65
2023/05/23 11:10:32;;;;;;;10.60;4.87;;;;;;;;;;5015492;28;20171;-66
2023/05/23 11:13:09;;;;;;;11.37;4.40;;;;;;;;;;5033412;28;20210;-67
2023/05/23 11:15:43;;;;;;;11.47;5.00;;;;;;;;;;5033015;28;20217;-67
2023/05/23 11:18:10;;;;;;;11.33;5.20;;;;;;;;;;5033018;28;20193;-67
2023/05/23 11:20:36;;;;;;;12.20;4.67;;;;;;;;;;5015511;28;20179;-67
2023/05/23 11:23:06;;;;;;;11.77;4.90;;;;;;;;;;5033037;28;20246;-67
2023/05/23 11:25:40;;;;;;;12.40;5.70;;;;;;;;;;5033021;28;20656;-67
2023/05/23 11:28:06;;;;;;;16.98;5.68;;;;;;;;;;5014882;28;20383;-67
2023/05/23 11:30:32;;;;;;;18.00;6.00;;;;;;;;;;5015584;28;20544;-68
2023/05/23 11:32:58;;;;;;;11.67;5.27;;;;;;;;;;5032908;28;20251;-68
2023/05/23 11:35:25;;;;;;;11.70;4.87;;;;;;;;;;5015236;28;20175;-67
2023/05/23 11:37:52;;;;;;;14.13;4.70;;;;;;;;;;5033032;28;20222;-68
2023/05/23 11:40:25;;;;;;;15.63;5.07;;;;;;;;;;5014982;28;20189;-68
2023/05/23 11:42:51;;;;;;;15.17;4.87;;;;;;;;;;5015301;28;20736;-67
2023/05/23 11:45:22;;;;;;;13.63;5.23;;;;;;;;;;5033003;28;20206;-67
2023/05/23 11:47:48;;;;;;;14.10;5.03;;;;;;;;;;5018027;28;20187;-69
2023/05/23 11:50:19;;;;;;;16.97;5.73;;;;;;;;;;5019027;28;20191;-67
2023/05/23 11:52:50;;;;;;;13.93;5.23;;;;;;;;;;5018959;28;20256;-68
2023/05/23 11:55:16;;;;;;;16.07;5.23;;;;;;;;;;5019065;28;20172;-67
2023/05/23 11:57:43;;;;;;;14.87;4.50;;;;;;;;;;5037194;28;20171;-67
2023/05/23 12:00:10;;;;;;;15.90;4.37;;;;;;;;;;5037075;28;20202;-67
2023/05/23 12:02:39;;;;;;;14.97;4.67;;;;;;;;;;5019288;28;20175;-68
2023/05/23 12:05:09;;;;;;;16.13;4.83;;;;;;;;;;5037020;28;20244;-67
2023/05/23 12:07:36;;;;;;;17.67;5.00;;;;;;;;;;5036611;28;20179;-67
2023/05/23 12:10:03;;;;;;;17.67;5.57;;;;;;;;;;5036560;28;20206;-68
2023/05/23 12:12:31;;;;;;;7.13;3.87;;;;;;;;;;5018750;28;20207;-68
2023/05/23 12:14:57;;;;;;;8.17;4.07;;;;;;;;;;5036619;28;20168;-68
2023/05/23 12:17:23;;;;;;;7.23;3.27;;;;;;;;;;5018823;28;20191;-67
2023/05/23 12:19:49;;;;;;;11.67;4.30;;;;;;;;;;5018833;28;20281;-68
2023/05/23 12:22:22;;;;;;;11.63;4.57;;;;;;;;;;5036417;28;20190;-68
2023/05/23 12:24:48;;;;;;;14.33;4.50;;;;;;;;;;5036962;28;20170;-68
2023/05/23 12:27:17;;;;;;;10.23;3.87;;;;;;;;;;5036752;28;20174;-68
2023/05/23 12:29:52;;;;;;;9.57;3.80;;;;;;;;;;5036095;28;20290;-66
2023/05/23 12:32:18;;;;;;;10.00;4.30;;;;;;;;;;5036974;28;20201;-66
2023/05/23 12:34:44;;;;;;;14.27;4.20;;;;;;;;;;5018298;28;20183;-66
2023/05/23 12:37:13;;;;;;;12.47;4.27;;;;;;;;;;5018692;28;20578;-67
2023/05/23 12:39:39;;;;;;;13.30;4.90;;;;;;;;;;5036916;28;20191;-67
2023/05/23 12:42:09;;;;;;;8.77;4.27;;;;;;;;;;5018370;28;20205;-66
2023/05/23 12:44:35;;;;;;;12.80;4.33;;;;;;;;;;5036189;28;20304;-68
2023/05/23 12:47:04;;;;;;;11.87;4.40;;;;;;;;;;5036590;28;20190;-67
2023/05/23 12:49:30;;;;;;;13.97;4.67;;;;;;;;;;5017986;28;20210;-67
2023/05/23 12:51:56;;;;;;;13.83;5.13;;;;;;;;;;5018315;28;20547;-66
2023/05/23 12:54:22;;;;;;;13.77;4.73;;;;;;;;;;5035801;28;20234;-67
2023/05/23 12:56:48;;;;;;;13.80;5.00;;;;;;;;;;5036312;28;20175;-67
2023/05/23 12:59:14;;;;;;;13.03;4.57;;;;;;;;;;5035619;28;20199;-67
2023/05/23 13:01:40;;;;;;;12.37;4.50;;;;;;;;;;5017882;28;20282;-67
2023/05/23 13:04:06;;;;;;;7.53;3.70;;;;;;;;;;5035648;28;20184;-67
2023/05/23 13:06:32;;;;;;;10.80;4.23;;;;;;;;;;5017702;28;20298;-67
2023/05/23 13:08:58;;;;;;;13.40;4.43;;;;;;;;;;5035376;28;20579;-67
2023/05/23 13:11:25;;;;;;;11.77;4.47;;;;;;;;;;5035685;28;20202;-67
2023/05/23 13:13:51;;;;;;;11.17;4.30;;;;;;;;;;5017780;28;20644;-67
2023/05/23 13:16:17;;;;;;;11.60;4.10;;;;;;;;;;5035901;28;20266;-66
2023/05/23 13:18:43;;;;;;;20.27;5.50;;;;;;;;;;5035643;28;20222;-68
2023/05/23 13:21:09;;;;;;;15.70;5.37;;;;;;;;;;5035809;28;20179;-67
2023/05/23 13:23:37;;;;;;;13.57;4.97;;;;;;;;;;5035691;28;20183;-67
2023/05/23 13:26:03;;;;;;;13.57;4.80;;;;;;;;;;5035509;28;20190;-67
2023/05/23 13:28:29;;;;;;;13.33;4.90;;;;;;;;;;5035230;28;20203;-67
2023/05/23 13:30:55;;;;;;;15.20;4.17;;;;;;;;;;5035228;28;20183;-67
2023/05/23 13:33:22;;;;;;;14.20;5.40;;;;;;;;;;5017394;28;20553;-67
2023/05/23 13:35:49;;;;;;;8.13;4.00;;;;;;;;;;5017576;28;20190;-67
2023/05/23 13:38:15;;;;;;;11.90;4.77;;;;;;;;;;5017329;28;20289;-67
2023/05/23 13:40:41;;;;;;;11.60;4.77;;;;;;;;;;5035030;28;20181;-67
2023/05/23 13:43:07;;;;;;;9.80;3.70;;;;;;;;;;5035172;28;20206;-67
2023/05/23 13:45:33;;;;;;;9.97;4.30;;;;;;;;;;5035287;28;20175;-67
2023/05/23 13:47:59;;;;;;;9.20;4.00;;;;;;;;;;5034855;28;20171;-67
2023/05/23 13:50:26;;;;;;;10.03;4.23;;;;;;;;;;5017149;28;20175;-67
2023/05/23 13:52:52;;;;;;;12.33;4.53;;;;;;;;;;5034712;28;20233;-67
2023/05/23 13:55:18;;;;;;;9.77;4.40;;;;;;;;;;5017093;28;20228;-67
2023/05/23 13:57:44;;;;;;;10.77;4.10;;;;;;;;;;5034859;28;20179;-68
2023/05/23 14:00:11;;;;;;;13.93;4.57;;;;;;;;;;5034899;28;20252;-66
2023/05/23 14:02:37;;;;;;;13.87;4.30;;;;;;;;;;5016947;28;20251;-66
2023/05/23 14:05:03;;;;;;;12.70;4.33;;;;;;;;;;5016905;28;20726;-67
2023/05/23 14:07:29;;;;;;;9.27;4.30;;;;;;;;;;5034524;28;20175;-66
2023/05/23 14:09:56;;;;;;;10.10;4.00;;;;;;;;;;5016059;28;20293;-66
2023/05/23 14:12:22;;;;;;;11.93;4.60;;;;;;;;;;5016774;28;20211;-68
2023/05/23 14:14:48;;;;;;;13.13;3.97;;;;;;;;;;5016646;28;20603;-66
2023/05/23 14:17:15;;;;;;;6.17;3.50;;;;;;;;;;5034187;28;20179;-66
2023/05/23 14:19:41;;;;;;;10.73;3.80;;;;;;;;;;5016175;28;20214;-66
2023/05/23 14:22:07;;;;;;;11.00;4.10;;;;;;;;;;5034503;28;20179;-66
2023/05/23 14:24:33;;;;;;;10.60;4.03;;;;;;;;;;5034416;28;20175;-66
2023/05/23 14:26:59;;;;;;;9.97;4.20;;;;;;;;;;5034103;28;20188;-67
2023/05/23 14:29:25;;;;;;;;;;;;;;;;;;5017059;28;20116;-66
2023/05/23 14:31:51;;;;;;;;;;;;;;;;;;5034522;28;19915;-67
2023/05/23 14:34:17;;;;;;;;;;;;;;;;;;5017070;28;19905;-66